Flight Briefing for CPX962

Departure Arrival
Joint Base McGuire Dix Lakehurst (KWRI)
Click to view FAA NOTAMS
Washington Dulles International Airport (KIAD)
Click to view FAA NOTAMS
Departure Time Arrival Time
N/A N/A
Aircraft Distance
B767-300BDSF 151nm
Departure METAR Arrival METAR
KWRI 152018Z AUTO 23012G19KT 10SM FEW095 SCT200 17/04 A2961 RMK AO2 RAB09E18 SLP027 VISNO RWY06 $ KIAD 151952Z 21015G22KT 10SM FEW050 BKN130 OVC220 17/03 A2964 RMK AO2 PK WND 22029/1905 SLP035 T01720033
Suggested Route
MXE


View recent IFR Routes data
Notes
EMPTY | NON-REVENUE REPOSITIONING LEG

Charts and Procedures

Charts for KWRI
No chart available
Charts for KIAD
No chart available

Ventusky Weather